Time;durP1;ratioP1;P1;durP2;ratioP2;P2;SDS_P1;SDS_P2;PMS_P1;PMS_P2;Temp;Humidity;BMP_temperature;BMP_pressure;BME280_temperature;BME280_humidity;BME280_pressure;Samples;Min_cycle;Max_cycle;Signal;HPM_P1;HPM_P2
2023/07/31 00:01:44;;;;;;;4.85;2.10;;;;;;;-141.84;72.67;20693.94;5062733;28;20315;-68
2023/07/31 00:04:12;;;;;;;3.03;2.10;;;;;;;-141.84;73.22;20700.03;5062070;28;20708;-70
2023/07/31 00:06:41;;;;;;;2.60;1.80;;;;;;;-141.84;73.67;20685.81;5055420;28;20205;-67
2023/07/31 00:09:11;;;;;;;4.07;2.17;;;;;;;-141.84;74.03;20669.56;5061904;28;20229;-67
2023/07/31 00:11:40;;;;;;;3.35;2.05;;;;;;;-141.84;72.49;20706.16;5062031;28;20285;-68
2023/07/31 00:14:08;;;;;;;6.75;2.17;;;;;;;-141.84;71.06;20748.84;5062038;28;20304;-68
2023/07/31 00:16:37;;;;;;;5.93;2.33;;;;;;;-141.84;71.28;20728.50;5053944;28;20667;-67
2023/07/31 00:19:06;;;;;;;6.07;2.20;;;;;;;-141.84;72.54;20740.69;5062056;28;20278;-67
2023/07/31 00:21:34;;;;;;;3.78;2.22;;;;;;;-141.84;73.17;20728.50;5062505;28;20288;-68
2023/07/31 00:24:03;;;;;;;3.17;2.00;;;;;;;-141.84;73.72;20704.13;5062414;28;20228;-67
2023/07/31 00:26:33;;;;;;;4.95;1.95;;;;;;;-141.84;73.15;20689.88;5050932;28;20332;-67
2023/07/31 00:29:02;;;;;;;3.95;2.40;;;;;;;-141.84;72.96;20742.75;5062219;28;20338;-68
2023/07/31 00:31:30;;;;;;;5.55;2.45;;;;;;;-141.84;73.79;20698.00;5062089;28;20236;-67
2023/07/31 00:33:59;;;;;;;3.55;2.33;;;;;;;-141.84;73.08;20702.09;5062418;28;20676;-68
2023/07/31 00:36:27;;;;;;;2.63;2.15;;;;;;;-141.84;73.98;20700.03;5058816;28;20326;-69
2023/07/31 00:38:56;;;;;;;5.45;2.70;;;;;;;-141.84;73.96;20714.28;5060439;28;20632;-67
2023/07/31 00:41:24;;;;;;;3.53;2.10;;;;;;;-141.84;74.59;20708.19;5062066;28;20238;-67
2023/07/31 00:43:54;;;;;;;5.07;2.00;;;;;;;-141.84;74.59;20691.91;5061877;28;20254;-68
2023/07/31 00:46:22;;;;;;;2.78;2.20;;;;;;;-141.84;75.19;20683.78;5061785;28;20324;-69
2023/07/31 00:48:51;;;;;;;5.07;2.00;;;;;;;-141.84;75.56;20689.88;5056215;28;20216;-67
2023/07/31 00:51:20;;;;;;;3.50;2.10;;;;;;;-141.84;74.97;20746.81;5061542;28;20232;-67
2023/07/31 00:53:48;;;;;;;4.43;2.25;;;;;;;-141.84;74.25;20732.56;5061504;28;20874;-67
2023/07/31 00:56:17;;;;;;;3.60;1.92;;;;;;;-141.84;72.19;20726.47;5065001;28;20323;-67
2023/07/31 00:58:46;;;;;;;4.55;2.08;;;;;;;-141.84;72.21;20738.66;5057563;28;20254;-67
2023/07/31 01:01:16;;;;;;;4.25;2.10;;;;;;;-141.84;72.60;20744.78;5065397;28;20254;-67
2023/07/31 01:03:45;;;;;;;2.88;2.25;;;;;;;-141.84;71.00;20771.19;5065617;28;20212;-68
2023/07/31 01:06:22;;;;;;;5.50;2.13;;;;;;;-141.84;72.56;20736.63;5065486;28;20236;-68
2023/07/31 01:09:00;;;;;;;4.40;2.30;;;;;;;-141.84;72.04;20736.63;5057966;28;20275;-68
2023/07/31 01:11:30;;;;;;;5.93;2.30;;;;;;;-141.84;71.11;20744.78;5065053;28;20327;-67
2023/07/31 01:14:00;;;;;;;3.92;2.30;;;;;;;-141.84;71.37;20756.97;5064963;28;20669;-68
2023/07/31 01:16:30;;;;;;;4.80;2.15;;;;;;;-141.84;69.92;20801.69;5057667;28;20252;-68
2023/07/31 01:18:58;;;;;;;3.55;2.30;;;;;;;-141.84;70.14;20822.03;5064932;28;20266;-68
2023/07/31 01:21:58;;;;;;;3.10;2.10;;;;;;;-141.84;69.73;20811.84;5064948;28;20224;-68
2023/07/31 01:24:34;;;;;;;6.43;2.20;;;;;;;-141.84;68.96;20801.69;5042936;28;20242;-67
2023/07/31 01:27:07;;;;;;;2.53;1.90;;;;;;;-141.84;70.27;20815.91;5044868;28;20814;-68
2023/07/31 01:29:44;;;;;;;3.65;1.80;;;;;;;-141.84;68.80;20805.75;5046725;28;20650;-69
2023/07/31 01:32:13;;;;;;;2.60;2.00;;;;;;;-141.84;67.63;20842.34;5064920;28;20232;-67
2023/07/31 01:34:42;;;;;;;4.95;2.10;;;;;;;-141.84;67.47;20868.78;5057419;28;20260;-69
2023/07/31 01:37:11;;;;;;;2.78;1.60;;;;;;;-141.84;66.47;20911.47;5063931;28;20215;-67
2023/07/31 01:39:39;;;;;;;2.65;2.10;;;;;;;-141.84;67.16;20842.34;5064262;28;20634;-67
2023/07/31 01:42:09;;;;;;;4.55;2.30;;;;;;;-141.84;66.31;20915.53;5064441;28;20232;-68
2023/07/31 01:44:37;;;;;;;4.93;2.00;;;;;;;-141.84;66.86;20878.94;5056542;28;20312;-67
2023/07/31 01:47:06;;;;;;;3.08;2.10;;;;;;;-141.84;67.38;20854.53;5064805;28;20228;-69
2023/07/31 01:49:35;;;;;;;3.70;2.00;;;;;;;-141.84;68.71;20850.47;5064170;28;20232;-67
2023/07/31 01:52:04;;;;;;;4.38;2.75;;;;;;;-141.84;69.17;20874.88;5064981;28;20212;-67
2023/07/31 01:54:33;;;;;;;2.80;1.80;;;;;;;-141.84;70.20;20785.44;5057031;28;20221;-67
2023/07/31 01:57:01;;;;;;;4.15;2.30;;;;;;;-141.84;71.24;20750.88;5064244;28;20612;-68
2023/07/31 01:59:31;;;;;;;3.10;2.08;;;;;;;-141.84;71.06;20773.22;5064256;28;20282;-68
2023/07/31 02:02:00;;;;;;;2.67;1.98;;;;;;;-141.84;73.18;20724.44;5064023;28;20276;-67
2023/07/31 02:04:28;;;;;;;3.83;2.50;;;;;;;-141.84;74.32;20710.22;5058788;28;20307;-68
2023/07/31 02:06:57;;;;;;;4.35;2.50;;;;;;;-141.84;74.64;20706.16;5063598;28;20700;-68
2023/07/31 02:09:25;;;;;;;4.20;2.35;;;;;;;-141.84;74.43;20712.25;5063591;28;20319;-67
2023/07/31 02:11:54;;;;;;;4.03;2.10;;;;;;;-141.84;74.02;20702.09;5063870;28;20232;-67
2023/07/31 02:14:22;;;;;;;4.82;2.08;;;;;;;-141.84;73.04;20720.38;5063931;28;20793;-68
2023/07/31 02:16:52;;;;;;;3.38;2.30;;;;;;;-141.84;73.04;20738.66;5056720;28;20305;-67
2023/07/31 02:19:20;;;;;;;3.58;2.00;;;;;;;-141.84;71.82;20740.69;5062710;28;20579;-67
2023/07/31 02:21:49;;;;;;;4.57;2.13;;;;;;;-141.84;70.98;20763.06;5064020;28;20258;-67
2023/07/31 02:24:17;;;;;;;4.03;2.38;;;;;;;-141.84;72.06;20763.06;5062936;28;20672;-68
2023/07/31 02:26:46;;;;;;;2.58;2.20;;;;;;;-141.84;71.36;20781.38;5055974;28;20787;-67
2023/07/31 02:29:14;;;;;;;4.03;2.40;;;;;;;-141.84;72.41;20740.69;5064248;28;20256;-68
2023/07/31 02:31:43;;;;;;;5.30;2.15;;;;;;;-141.84;71.41;20730.53;5063279;28;20305;-67
2023/07/31 02:34:13;;;;;;;3.58;2.13;;;;;;;-141.84;71.34;20789.50;5063459;28;20208;-68
2023/07/31 02:36:41;;;;;;;4.32;2.13;;;;;;;-141.84;69.94;20799.66;5056101;28;20307;-67
2023/07/31 02:39:10;;;;;;;4.65;2.25;;;;;;;-141.84;71.16;20779.31;5063453;28;20245;-67
2023/07/31 02:41:38;;;;;;;3.58;2.20;;;;;;;-141.84;71.13;20767.13;5062954;28;20310;-67
2023/07/31 02:44:07;;;;;;;4.60;2.35;;;;;;;-141.84;69.45;20828.13;5063582;28;20460;-67
2023/07/31 02:46:35;;;;;;;3.78;2.42;;;;;;;-141.84;70.03;20803.72;5055585;28;20228;-67
2023/07/31 02:49:04;;;;;;;3.38;2.05;;;;;;;-141.84;71.15;20740.69;5063479;28;20220;-67
2023/07/31 02:51:34;;;;;;;3.63;2.22;;;;;;;-141.84;70.51;20817.94;5063581;28;20233;-67
2023/07/31 02:54:02;;;;;;;4.07;2.03;;;;;;;-141.84;70.95;20789.50;5063470;28;20236;-67
2023/07/31 02:56:31;;;;;;;3.50;1.98;;;;;;;-141.84;71.80;20746.81;5055609;28;20303;-67
2023/07/31 02:59:00;;;;;;;3.42;2.40;;;;;;;-141.84;71.34;20748.84;5062900;28;20236;-68
2023/07/31 03:01:28;;;;;;;3.30;2.30;;;;;;;-141.84;72.10;20714.28;5062762;28;20229;-66
2023/07/31 03:03:57;;;;;;;3.20;2.20;;;;;;;-141.84;72.32;20761.03;5063103;28;20205;-67
2023/07/31 03:06:27;;;;;;;3.75;2.20;;;;;;;-141.84;71.04;20771.19;5062842;28;20228;-68
2023/07/31 03:08:56;;;;;;;4.15;2.28;;;;;;;-141.84;70.67;20746.81;5062726;28;20236;-69
2023/07/31 03:11:25;;;;;;;5.38;2.28;;;;;;;-141.84;69.95;20797.63;5062802;28;20319;-67
2023/07/31 03:13:53;;;;;;;4.20;2.03;;;;;;;-141.84;70.79;20777.28;5062453;28;20224;-69
2023/07/31 03:16:22;;;;;;;4.28;2.20;;;;;;;-141.84;70.11;20793.56;5062189;28;20252;-67
2023/07/31 03:18:51;;;;;;;2.67;1.98;;;;;;;-141.84;71.50;20744.78;5055142;28;20221;-67
2023/07/31 03:21:19;;;;;;;4.85;2.10;;;;;;;-141.84;71.01;20779.31;5062619;28;20228;-67
2023/07/31 03:23:48;;;;;;;4.22;2.40;;;;;;;-141.84;70.46;20748.84;5062985;28;20268;-67
2023/07/31 03:26:17;;;;;;;3.40;2.20;;;;;;;-141.84;70.72;20771.19;5062437;28;20303;-68
2023/07/31 03:28:46;;;;;;;7.00;2.15;;;;;;;-141.84;70.56;20765.09;5055131;28;20248;-68
2023/07/31 03:31:14;;;;;;;4.43;2.20;;;;;;;-141.84;71.08;20752.91;5060856;28;20300;-67
2023/07/31 03:33:43;;;;;;;4.22;2.50;;;;;;;-141.84;70.92;20777.28;5062971;28;20631;-69
2023/07/31 03:36:11;;;;;;;6.40;2.42;;;;;;;-141.84;70.96;20787.47;5062100;28;20712;-68
2023/07/31 03:38:40;;;;;;;2.97;2.03;;;;;;;-141.84;72.46;20724.44;5054863;28;20314;-68
2023/07/31 03:41:10;;;;;;;3.95;2.20;;;;;;;-141.84;72.77;20734.59;5062427;28;20237;-68
2023/07/31 03:43:40;;;;;;;3.58;2.38;;;;;;;-141.84;72.59;20783.41;5062204;28;20232;-68
2023/07/31 03:46:08;;;;;;;6.97;2.47;;;;;;;-141.84;74.17;20681.75;5062394;28;20205;-67
2023/07/31 03:48:37;;;;;;;3.55;2.05;;;;;;;-141.84;75.40;20700.03;5054976;28;20212;-66
2023/07/31 03:51:06;;;;;;;3.85;2.40;;;;;;;-141.84;76.21;20641.09;5062041;28;20671;-68
2023/07/31 03:53:34;;;;;;;6.10;2.60;;;;;;;-141.84;76.32;20647.19;5062326;28;20647;-66
2023/07/31 03:56:03;;;;;;;5.32;2.42;;;;;;;-141.84;76.21;20647.19;5061961;28;20712;-67
2023/07/31 03:58:32;;;;;;;7.25;2.97;;;;;;;-141.84;76.51;20608.56;5054797;28;20256;-66
2023/07/31 04:01:02;;;;;;;3.60;2.50;;;;;;;-141.84;77.04;20632.97;5062880;28;20200;-67
2023/07/31 04:03:31;;;;;;;4.72;2.35;;;;;;;-141.84;77.98;20584.19;5061960;28;20621;-67
2023/07/31 04:05:59;;;;;;;4.47;2.50;;;;;;;-141.84;78.34;20600.44;5062108;28;20228;-67
2023/07/31 04:08:28;;;;;;;5.38;2.72;;;;;;;-141.84;78.08;20559.78;5057298;28;20779;-65
2023/07/31 04:10:56;;;;;;;7.00;3.30;;;;;;;-141.84;77.81;20632.97;5058678;28;20430;-67
2023/07/31 04:13:27;;;;;;;6.07;2.63;;;;;;;-141.84;76.21;20659.38;5062106;28;20291;-67
2023/07/31 04:15:55;;;;;;;3.83;2.40;;;;;;;-141.84;77.50;20620.78;5062666;28;20250;-68
2023/07/31 04:18:26;;;;;;;5.20;2.50;;;;;;;-141.84;76.41;20659.38;5061232;28;20315;-67
2023/07/31 04:20:55;;;;;;;4.85;2.63;;;;;;;-141.84;77.46;20610.59;5059951;28;20238;-67
2023/07/31 04:23:24;;;;;;;4.15;2.42;;;;;;;-141.84;76.85;20663.47;5062012;28;20243;-68
2023/07/31 04:25:52;;;;;;;3.95;2.60;;;;;;;-141.84;77.58;20602.47;5061693;28;20606;-67
2023/07/31 04:28:20;;;;;;;2.42;2.20;;;;;;;-141.84;77.88;20622.81;5062210;28;20295;-67
2023/07/31 04:30:49;;;;;;;3.35;2.55;;;;;;;-141.84;77.77;20665.50;5057489;28;20224;-68
2023/07/31 04:33:18;;;;;;;4.55;2.60;;;;;;;-141.84;77.74;20649.22;5065803;28;20225;-67
2023/07/31 04:35:52;;;;;;;2.60;2.20;;;;;;;-141.84;77.76;20669.56;5065573;28;20270;-67
2023/07/31 04:38:21;;;;;;;4.53;2.95;;;;;;;-141.84;77.37;20655.31;5065471;28;20771;-67
2023/07/31 04:40:50;;;;;;;5.85;2.72;;;;;;;-141.84;76.76;20685.81;5058268;28;20834;-68
2023/07/31 04:43:18;;;;;;;4.35;2.85;;;;;;;-141.84;77.07;20637.03;5065401;28;20232;-67
2023/07/31 04:45:48;;;;;;;5.35;2.60;;;;;;;-141.84;78.11;20663.47;5066203;28;20212;-68
2023/07/31 04:48:17;;;;;;;4.93;2.70;;;;;;;-141.84;78.68;20667.53;5065226;28;20672;-68
2023/07/31 04:50:45;;;;;;;11.70;2.90;;;;;;;-141.84;78.01;20675.66;5060813;28;20228;-67
2023/07/31 04:53:15;;;;;;;4.07;2.58;;;;;;;-141.84;78.66;20671.59;5065599;28;20319;-68
2023/07/31 04:55:43;;;;;;;4.80;2.60;;;;;;;-141.84;79.80;20637.03;5065550;28;20231;-67
2023/07/31 04:58:12;;;;;;;5.78;2.80;;;;;;;-141.84;79.98;20651.25;5065144;28;20642;-67
2023/07/31 05:00:40;;;;;;;6.25;2.65;;;;;;;-141.84;80.76;20643.13;5057525;28;20304;-68
2023/07/31 05:03:10;;;;;;;5.85;2.90;;;;;;;-141.84;81.89;20610.59;5065238;28;20307;-68
2023/07/31 05:05:39;;;;;;;3.45;2.75;;;;;;;-141.84;82.74;20580.13;5064632;28;20225;-68
2023/07/31 05:08:07;;;;;;;5.80;2.97;;;;;;;-141.84;82.52;20612.63;5061735;28;20668;-67
2023/07/31 05:10:37;;;;;;;5.35;3.10;;;;;;;-141.84;83.01;20567.91;5057285;28;20256;-67
2023/07/31 05:13:06;;;;;;;4.85;2.97;;;;;;;-141.84;83.79;20618.72;5064737;28;20209;-68
2023/07/31 05:15:34;;;;;;;5.60;3.35;;;;;;;-141.84;82.75;20588.25;5065191;28;20205;-67
2023/07/31 05:18:03;;;;;;;4.78;3.17;;;;;;;-141.84;83.35;20543.53;5070379;28;20333;-68
2023/07/31 05:20:31;;;;;;;5.20;3.13;;;;;;;-141.84;83.88;20557.75;5058798;28;20646;-67
2023/07/31 05:23:00;;;;;;;3.95;2.95;;;;;;;-141.84;84.64;20582.16;5064642;28;20227;-67
2023/07/31 05:25:28;;;;;;;4.13;3.15;;;;;;;-141.84;85.69;20547.59;5064572;28;20242;-68
2023/07/31 05:27:58;;;;;;;5.65;3.40;;;;;;;-141.84;86.32;20498.81;5064734;28;20207;-59
2023/07/31 05:30:26;;;;;;;3.45;2.90;;;;;;;-141.84;86.08;20519.13;5062560;28;20320;-59
2023/07/31 05:32:55;;;;;;;4.93;3.08;;;;;;;-141.84;85.98;20533.34;5062614;28;20282;-60
2023/07/31 05:35:23;;;;;;;5.03;2.97;;;;;;;-141.84;85.72;20571.97;5064163;28;20716;-59
2023/07/31 05:37:52;;;;;;;4.82;3.22;;;;;;;-141.84;86.06;20551.66;5064070;28;20320;-59
2023/07/31 05:40:20;;;;;;;6.70;3.40;;;;;;;-141.84;85.91;20576.03;5064544;28;20205;-59
2023/07/31 05:42:49;;;;;;;3.97;3.00;;;;;;;-141.84;85.01;20561.81;5056761;28;20679;-58
2023/07/31 05:45:19;;;;;;;3.47;3.05;;;;;;;-141.84;84.75;20622.81;5054401;28;20259;-62
2023/07/31 05:47:47;;;;;;;5.38;2.90;;;;;;;-141.84;85.31;20584.19;5065852;28;20259;-59
2023/07/31 05:50:16;;;;;;;35.60;32.05;;;;;;;-141.84;84.69;20614.66;5079315;28;20282;-60
2023/07/31 05:52:45;;;;;;;4.82;3.00;;;;;;;-141.84;84.23;20604.50;5055964;28;20307;-59
2023/07/31 05:55:13;;;;;;;5.28;2.85;;;;;;;-141.84;84.78;20645.16;5064131;28;20656;-59
2023/07/31 05:57:41;;;;;;;6.47;3.22;;;;;;;-141.84;83.29;20677.69;5073633;28;20764;-59
2023/07/31 06:00:11;;;;;;;6.93;2.80;;;;;;;-141.84;81.91;20675.66;5065399;28;20315;-59
2023/07/31 06:02:42;;;;;;;5.97;3.10;;;;;;;-141.84;81.42;20667.53;5061653;28;20312;-59
2023/07/31 06:05:10;;;;;;;4.18;2.88;;;;;;;-141.84;81.89;20683.78;5071111;28;20270;-58
2023/07/31 06:07:39;;;;;;;5.07;2.90;;;;;;;-141.84;80.46;20738.66;5068385;28;20224;-58
2023/07/31 06:10:09;;;;;;;4.55;2.90;;;;;;;-141.84;81.28;20714.28;5068969;28;20294;-60
2023/07/31 06:12:37;;;;;;;5.10;2.95;;;;;;;-141.84;81.43;20689.88;5060057;28;20232;-60
2023/07/31 06:15:07;;;;;;;3.47;2.80;;;;;;;-141.84;80.68;20732.56;5073529;28;20720;-59
2023/07/31 06:17:35;;;;;;;6.30;2.90;;;;;;;-141.84;80.04;20736.63;5068945;28;20264;-58
2023/07/31 06:20:07;;;;;;;4.07;2.60;;;;;;;-141.84;79.49;20773.22;5072080;28;20228;-58
2023/07/31 06:22:36;;;;;;;4.07;2.60;;;;;;;-141.84;79.58;20761.03;5063532;28;20360;-58
2023/07/31 06:25:04;;;;;;;4.13;2.88;;;;;;;-141.84;79.62;20767.13;5069282;28;20705;-58
2023/07/31 06:27:33;;;;;;;4.97;2.90;;;;;;;-141.84;78.92;20793.56;5067705;28;20620;-60
2023/07/31 06:30:01;;;;;;;4.82;2.60;;;;;;;-141.84;77.11;20850.47;5064717;28;20228;-60
2023/07/31 06:32:31;;;;;;;3.60;2.60;;;;;;;-141.84;77.74;20834.22;5060384;28;20753;-59
2023/07/31 06:35:00;;;;;;;5.68;3.08;;;;;;;-141.84;76.70;20828.13;5066696;28;20224;-60
2023/07/31 06:37:30;;;;;;;5.43;2.70;;;;;;;-141.84;77.32;20797.63;5071415;28;20223;-60
2023/07/31 06:39:58;;;;;;;4.47;2.70;;;;;;;-141.84;77.30;20842.34;5066863;28;20633;-61
2023/07/31 06:42:27;;;;;;;4.22;2.50;;;;;;;-141.84;76.44;20880.97;5068887;28;20224;-59
2023/07/31 06:44:55;;;;;;;3.25;2.53;;;;;;;-141.84;76.93;20844.38;5063889;28;20324;-58
2023/07/31 06:47:24;;;;;;;4.47;2.70;;;;;;;-141.84;76.40;20830.16;5072419;28;20274;-58
2023/07/31 06:49:52;;;;;;;3.67;2.55;;;;;;;-141.84;77.04;20848.44;5073705;28;20263;-57
2023/07/31 06:52:21;;;;;;;4.13;2.60;;;;;;;-141.84;75.38;20895.19;5065011;28;20215;-59
2023/07/31 06:55:03;;;;;;;3.15;2.63;;;;;;;-141.84;76.19;20864.72;5061573;28;20610;-59
2023/07/31 06:57:32;;;;;;;3.88;2.80;;;;;;;-141.84;76.07;20852.50;5063912;28;21004;-59
2023/07/31 07:00:01;;;;;;;3.33;2.53;;;;;;;-141.84;76.38;20887.06;5066664;28;20427;-59
2023/07/31 07:02:29;;;;;;;4.32;2.85;;;;;;;-141.84;76.28;20850.47;5062978;28;20308;-58
2023/07/31 07:04:58;;;;;;;4.85;2.88;;;;;;;-141.84;75.85;20844.38;5066828;28;20645;-58
2023/07/31 07:07:27;;;;;;;4.15;2.60;;;;;;;-141.84;75.35;20923.66;5070857;28;20247;-58
2023/07/31 07:09:59;;;;;;;3.75;2.80;;;;;;;-141.84;74.73;20862.69;5071947;28;20246;-58
2023/07/31 07:12:28;;;;;;;3.80;2.50;;;;;;;-141.84;76.22;20842.34;5067054;28;20277;-56
2023/07/31 07:14:57;;;;;;;3.13;2.50;;;;;;;-141.84;75.86;20860.66;5065460;28;20209;-59
2023/07/31 07:17:26;;;;;;;5.28;2.60;;;;;;;-141.84;75.35;20868.78;5068458;28;20247;-60
2023/07/31 07:19:55;;;;;;;3.40;2.53;;;;;;;-141.84;74.24;20905.38;5065599;28;20224;-59
2023/07/31 07:22:25;;;;;;;5.20;2.70;;;;;;;-141.84;74.56;20887.06;5060562;28;20252;-60
2023/07/31 07:24:54;;;;;;;4.82;2.85;;;;;;;-141.84;74.71;20903.34;5059392;28;20200;-60
2023/07/31 07:27:24;;;;;;;3.83;2.40;;;;;;;-141.84;73.09;20909.44;5059126;28;20312;-60
2023/07/31 07:29:53;;;;;;;3.42;2.53;;;;;;;-141.84;73.92;20929.75;5059389;28;20243;-57
2023/07/31 07:32:22;;;;;;;5.20;2.67;;;;;;;-141.84;73.86;20923.66;5059986;28;20235;-62
2023/07/31 07:34:51;;;;;;;3.83;2.50;;;;;;;-141.84;73.95;20909.44;5052566;28;20235;-61
2023/07/31 07:37:19;;;;;;;3.72;2.65;;;;;;;-141.84;72.44;20974.50;5059476;28;20631;-64
2023/07/31 07:39:48;;;;;;;4.28;2.63;;;;;;;-141.84;73.00;20964.31;5059616;28;20228;-61
2023/07/31 07:42:16;;;;;;;3.60;2.60;;;;;;;-141.84;70.63;21019.22;5059805;28;20232;-60
2023/07/31 07:44:46;;;;;;;4.38;2.38;;;;;;;-141.84;71.22;21009.03;5051995;28;20282;-60
2023/07/31 07:47:14;;;;;;;3.40;2.28;;;;;;;-141.84;70.53;21082.25;5059662;28;20263;-59
2023/07/31 07:49:43;;;;;;;5.82;2.75;;;;;;;-141.84;70.08;21090.38;5065787;28;20682;-60
2023/07/31 07:52:19;;;;;;;5.40;2.60;;;;;;;-141.84;69.23;21098.50;5079194;28;20200;-60
2023/07/31 07:54:48;;;;;;;3.67;2.50;;;;;;;-141.84;70.41;21043.59;5072359;28;20257;-60
2023/07/31 07:57:16;;;;;;;3.50;2.47;;;;;;;-141.84;70.36;21068.00;5062946;28;20321;-59
2023/07/31 07:59:46;;;;;;;3.10;2.28;;;;;;;-141.84;70.42;21057.84;5059554;28;20315;-59
2023/07/31 08:02:15;;;;;;;4.93;3.08;;;;;;;-141.84;69.91;21100.53;5058767;28;20256;-61
2023/07/31 08:04:44;;;;;;;2.80;2.38;;;;;;;-141.84;71.13;21045.63;5054428;28;20238;-60
2023/07/31 08:07:13;;;;;;;7.43;3.05;;;;;;;-141.84;69.51;21108.66;5063752;28;20203;-60
2023/07/31 08:09:41;;;;;;;4.05;2.92;;;;;;;-141.84;68.45;21157.47;5063969;28;20249;-61
2023/07/31 08:12:10;;;;;;;3.03;2.33;;;;;;;-141.84;69.59;21059.88;5062750;28;20232;-56
2023/07/31 08:14:38;;;;;;;4.18;3.00;;;;;;;-141.84;68.77;21129.00;5055091;28;20292;-58
2023/07/31 08:17:08;;;;;;;3.22;2.28;;;;;;;-141.84;68.71;21169.66;5063871;28;20324;-59
2023/07/31 08:19:37;;;;;;;2.92;2.42;;;;;;;-141.84;67.96;21183.88;5081990;28;20351;-59
2023/07/31 08:22:06;;;;;;;4.43;2.60;;;;;;;-141.84;68.04;21161.53;5083172;28;20671;-59
2023/07/31 08:24:34;;;;;;;7.43;2.60;;;;;;;-141.84;67.13;21234.72;5076896;28;20243;-61
2023/07/31 08:27:03;;;;;;;3.85;2.65;;;;;;;-141.84;66.66;21293.69;5085732;28;20314;-59
2023/07/31 08:29:31;;;;;;;3.75;2.60;;;;;;;-141.84;66.98;21269.28;5084433;28;20315;-59
2023/07/31 08:32:00;;;;;;;4.07;2.55;;;;;;;-141.84;67.24;21250.97;5064758;28;20656;-59
2023/07/31 08:34:30;;;;;;;4.47;2.67;;;;;;;-141.84;65.64;21281.47;5061752;28;20291;-59
2023/07/31 08:36:58;;;;;;;6.30;2.33;;;;;;;-141.84;65.88;21265.22;5065923;28;20404;-60
2023/07/31 08:39:26;;;;;;;4.70;2.60;;;;;;;-141.84;66.42;21257.09;5064959;28;20239;-60
2023/07/31 08:42:00;;;;;;;2.85;2.20;;;;;;;-141.84;66.07;21297.75;5064833;28;20278;-60
2023/07/31 08:44:30;;;;;;;5.85;3.10;;;;;;;-141.84;66.47;21236.75;5058266;28;20627;-62
2023/07/31 08:46:59;;;;;;;7.38;2.95;;;;;;;-141.84;66.07;21236.75;5044743;28;20225;-59
2023/07/31 08:49:30;;;;;;;4.70;2.88;;;;;;;-141.84;66.33;21248.94;5079176;28;20232;-62
2023/07/31 08:51:58;;;;;;;3.80;2.45;;;;;;;-141.84;65.55;21322.13;5081790;28;20678;-64
2023/07/31 08:54:30;;;;;;;3.38;2.55;;;;;;;-141.84;65.54;21340.44;5062397;28;20654;-59
2023/07/31 08:57:00;;;;;;;3.28;2.25;;;;;;;-141.84;65.87;21287.56;5064790;28;20331;-61
2023/07/31 08:59:32;;;;;;;3.38;2.40;;;;;;;-141.84;65.11;21285.53;5064877;28;20569;-61
2023/07/31 09:02:06;;;;;;;3.47;2.50;;;;;;;-141.84;64.64;21332.31;5064774;28;20309;-58
2023/07/31 09:04:37;;;;;;;3.55;2.25;;;;;;;-141.84;64.27;21362.81;5056917;28;20238;-57
2023/07/31 09:07:06;;;;;;;5.07;2.70;;;;;;;-141.84;64.29;21346.53;5065181;28;20826;-58
2023/07/31 09:09:35;;;;;;;4.63;2.22;;;;;;;-141.84;64.30;21370.94;5064975;28;20312;-60
2023/07/31 09:12:05;;;;;;;3.85;2.45;;;;;;;-141.84;63.68;21366.88;5064532;28;20712;-58
2023/07/31 09:14:34;;;;;;;3.55;2.63;;;;;;;-141.84;62.91;21427.88;5056935;28;20304;-61
2023/07/31 09:17:03;;;;;;;3.63;2.05;;;;;;;-141.84;63.59;21362.81;5063958;28;20319;-60
2023/07/31 09:19:37;;;;;;;3.42;2.42;;;;;;;-141.84;64.06;21379.06;5071375;28;20248;-60
2023/07/31 09:22:07;;;;;;;3.50;2.28;;;;;;;-141.84;64.32;21395.34;5064327;28;20258;-61
2023/07/31 09:24:36;;;;;;;6.25;2.75;;;;;;;-141.84;63.73;21399.41;5048363;28;20309;-60
2023/07/31 09:27:06;;;;;;;5.45;2.28;;;;;;;-141.84;63.17;21419.72;5054048;28;20679;-59
2023/07/31 09:29:35;;;;;;;5.25;2.00;;;;;;;-141.84;62.58;21438.03;5064317;28;20324;-57
2023/07/31 09:32:04;;;;;;;4.13;2.50;;;;;;;-141.84;63.56;21358.75;5072226;28;20252;-60
2023/07/31 09:34:41;;;;;;;5.50;2.50;;;;;;;-141.84;62.23;21474.63;5060816;28;20224;-62
2023/07/31 09:37:09;;;;;;;3.30;2.53;;;;;;;-141.84;61.85;21460.41;5063654;28;20772;-59
2023/07/31 09:39:48;;;;;;;5.00;2.38;;;;;;;-141.84;61.99;21501.06;5070483;28;20311;-60
2023/07/31 09:42:26;;;;;;;4.88;2.67;;;;;;;-141.84;62.18;21468.53;5063817;28;20318;-60
2023/07/31 09:44:55;;;;;;;3.88;2.50;;;;;;;-141.84;63.02;21442.09;5061099;28;20751;-59
2023/07/31 09:47:27;;;;;;;3.45;2.78;;;;;;;-141.84;62.30;21462.44;5062979;28;20232;-59
2023/07/31 09:49:57;;;;;;;3.75;2.55;;;;;;;-141.84;61.67;21478.69;5057429;28;20229;-59
2023/07/31 09:52:28;;;;;;;5.13;2.70;;;;;;;-141.84;62.46;21470.56;5043695;28;20347;-61
2023/07/31 09:54:56;;;;;;;5.00;2.80;;;;;;;-141.84;60.78;21572.22;5059425;28;20307;-60
2023/07/31 09:57:25;;;;;;;4.80;2.83;;;;;;;-141.84;61.01;21614.94;5063665;28;20236;-60
2023/07/31 09:59:55;;;;;;;4.05;2.55;;;;;;;-141.84;61.41;21627.13;5063792;28;20247;-59
2023/07/31 10:02:25;;;;;;;4.07;2.58;;;;;;;-141.84;60.89;21663.72;5064052;28;20261;-61
2023/07/31 10:05:00;;;;;;;4.20;2.80;;;;;;;-141.84;63.00;21659.66;5060874;28;20225;-60
2023/07/31 10:07:31;;;;;;;5.00;2.42;;;;;;;-141.84;61.56;21602.72;5063702;28;20223;-59
2023/07/31 10:10:01;;;;;;;4.68;2.53;;;;;;;-141.84;62.30;21621.03;5063594;28;20626;-60
2023/07/31 10:12:34;;;;;;;6.10;2.60;;;;;;;-141.84;62.13;21692.19;5056293;28;20224;-62
2023/07/31 10:15:03;;;;;;;3.97;2.70;;;;;;;-141.84;60.69;21781.66;5064541;28;20239;-59
2023/07/31 10:17:32;;;;;;;3.55;2.70;;;;;;;-141.84;59.90;21836.56;5063684;28;20224;-60
2023/07/31 10:20:04;;;;;;;4.10;2.65;;;;;;;-141.84;58.73;21895.53;5062085;28;20224;-58
2023/07/31 10:22:33;;;;;;;4.45;2.70;;;;;;;-141.84;58.30;21911.78;5055851;28;20224;-59
2023/07/31 10:25:03;;;;;;;4.05;2.33;;;;;;;-141.84;58.35;21952.47;5063175;28;20212;-59
2023/07/31 10:27:31;;;;;;;3.42;2.83;;;;;;;-141.84;56.34;21989.06;5062241;28;20213;-59
2023/07/31 10:30:00;;;;;;;4.03;2.53;;;;;;;-141.84;57.21;21944.34;5063927;28;20224;-59
2023/07/31 10:32:30;;;;;;;4.05;2.20;;;;;;;-141.84;58.02;21895.53;5056340;28;20319;-58
2023/07/31 10:34:59;;;;;;;3.97;3.03;;;;;;;-141.84;57.88;21854.88;5063229;28;20281;-58
2023/07/31 10:37:31;;;;;;;4.50;2.80;;;;;;;-141.84;58.87;21848.75;5062925;28;20299;-59
2023/07/31 10:40:01;;;;;;;3.38;2.53;;;;;;;-141.84;58.28;21830.47;5063233;28;20224;-59
2023/07/31 10:42:35;;;;;;;4.47;2.90;;;;;;;-141.84;58.35;21842.66;5058383;28;20329;-64
2023/07/31 10:45:06;;;;;;;4.07;2.53;;;;;;;-141.84;58.80;21860.97;5062543;28;20299;-58
2023/07/31 10:47:39;;;;;;;3.22;2.50;;;;;;;-141.84;58.85;21795.88;5063311;28;20258;-60
2023/07/31 10:50:14;;;;;;;2.97;2.20;;;;;;;-141.84;58.47;21871.13;5062112;28;20286;-56
2023/07/31 10:52:47;;;;;;;3.92;2.70;;;;;;;-141.84;58.49;21893.50;5055688;28;20724;-57
2023/07/31 10:55:23;;;;;;;3.10;2.30;;;;;;;-141.84;58.96;21883.31;5062189;28;20274;-58
2023/07/31 10:57:52;;;;;;;4.22;2.40;;;;;;;-141.84;57.88;21948.41;5063548;28;20200;-58
2023/07/31 11:00:27;;;;;;;3.63;2.53;;;;;;;-141.84;56.87;21974.84;5062952;28;20274;-59
2023/07/31 11:03:04;;;;;;;3.63;2.70;;;;;;;-141.84;57.26;21997.19;5040177;28;20736;-60
2023/07/31 11:05:50;;;;;;;3.78;2.50;;;;;;;-141.84;56.94;21976.88;5059436;28;20286;-60
2023/07/31 11:08:22;;;;;;;8.40;2.78;;;;;;;-141.84;56.81;21966.69;5055755;28;20260;-59
2023/07/31 11:11:05;;;;;;;2.92;2.63;;;;;;;-141.84;56.10;22052.09;5053146;28;20251;-59
2023/07/31 11:13:34;;;;;;;3.65;2.67;;;;;;;-141.84;55.66;22109.03;5061373;28;20641;-60
2023/07/31 11:16:03;;;;;;;2.78;2.45;;;;;;;-141.84;54.81;22125.31;5059569;28;20204;-60
2023/07/31 11:18:32;;;;;;;5.75;2.67;;;;;;;-141.84;54.95;22155.81;5052016;28;20239;-59
2023/07/31 11:21:01;;;;;;;3.25;2.72;;;;;;;-141.84;54.41;22241.22;5061379;28;20603;-59
2023/07/31 11:23:31;;;;;;;3.17;2.88;;;;;;;-141.84;52.99;22342.91;5061015;28;20315;-59
2023/07/31 11:26:02;;;;;;;3.35;2.33;;;;;;;-141.84;51.73;22373.41;5062160;28;20385;-59
2023/07/31 11:28:34;;;;;;;3.63;2.53;;;;;;;-141.84;52.32;22342.91;5054512;28;20301;-59